createdAt,value
2016-10-14T00:00:54.807Z,89.06
2016-10-14T00:01:54.774Z,89.25
2016-10-14T00:02:54.726Z,88.96
2016-10-14T00:03:54.385Z,88.87
2016-10-14T00:04:54.649Z,88.96
2016-10-14T00:05:54.609Z,89.06
2016-10-14T00:06:54.570Z,89.06
2016-10-14T00:07:54.231Z,89.06
2016-10-14T00:08:54.492Z,88.87
2016-10-14T00:09:54.452Z,89.15
2016-10-14T00:10:54.411Z,88.96
2016-10-14T00:11:54.373Z,88.96
2016-10-14T00:12:54.035Z,88.87
2016-10-14T00:13:54.299Z,88.87
2016-10-14T00:14:54.258Z,88.96
2016-10-14T00:15:54.220Z,88.77
2016-10-14T00:16:54.176Z,88.68
2016-10-14T00:17:54.137Z,88.48
2016-10-14T00:18:53.793Z,89.15
2016-10-14T00:19:54.056Z,88.77
2016-10-14T00:20:54.018Z,88.87
2016-10-14T00:21:53.979Z,88.87
2016-10-14T00:22:53.937Z,88.87
2016-10-14T00:23:53.897Z,88.87
2016-10-14T00:24:53.556Z,89.15
2016-10-14T00:25:53.819Z,88.77
2016-10-14T00:26:53.779Z,89.43
2016-10-14T00:27:53.445Z,88.96
2016-10-14T00:28:53.400Z,88.87
2016-10-14T00:29:53.663Z,89.06
2016-10-14T00:30:53.627Z,88.77
2016-10-14T00:31:53.593Z,88.77
2016-10-14T00:32:53.240Z,88.87
2016-10-14T00:33:53.503Z,89.06
2016-10-14T00:34:53.162Z,88.77
2016-10-14T00:35:53.424Z,88.77
2016-10-14T00:36:53.383Z,88.87
2016-10-14T00:37:53.346Z,88.96
2016-10-14T00:38:53.321Z,89
2016-10-14T00:39:53.269Z,88.87
2016-10-14T00:40:52.925Z,88.58
2016-10-14T00:41:53.190Z,89.06
2016-10-14T00:42:53.146Z,89.25
2016-10-14T00:43:53.110Z,88.68
2016-10-14T00:44:53.068Z,88.68
2016-10-14T00:45:53.028Z,88.68
2016-10-14T00:46:52.989Z,89.29
2016-10-14T00:47:52.949Z,88.87
2016-10-14T00:48:52.908Z,88.77
2016-10-14T00:49:52.570Z,88.87
2016-10-14T00:50:52.831Z,89.1
2016-10-14T00:51:52.791Z,88.81
2016-10-14T00:52:52.752Z,89.1
2016-10-14T00:53:52.721Z,88.91
2016-10-14T00:54:52.673Z,89
2016-10-14T00:55:52.634Z,88.72
2016-10-14T00:56:52.291Z,88.72
2016-10-14T00:57:52.556Z,89.2
2016-10-14T00:58:52.516Z,89.29
2016-10-14T00:59:52.479Z,89.2
2016-10-14T01:00:52.140Z,88.72
2016-10-14T01:01:52.402Z,88.91
2016-10-14T01:02:52.357Z,89.1
2016-10-14T01:03:52.319Z,89.2
2016-10-14T01:04:52.278Z,89
2016-10-14T01:05:52.239Z,89.2
2016-10-14T01:06:52.199Z,88.62
2016-10-14T01:07:52.162Z,88.72
2016-10-14T01:08:52.120Z,88.91
2016-10-14T01:09:51.782Z,89.48
2016-10-14T01:10:52.042Z,89.1
2016-10-14T01:11:52.002Z,89.1
2016-10-14T01:12:51.963Z,89
2016-10-14T01:13:51.624Z,89.1
2016-10-14T01:14:51.884Z,89.2
2016-10-14T01:15:51.846Z,89.1
2016-10-14T01:16:51.505Z,88.81
2016-10-14T01:17:51.775Z,88.91
2016-10-14T01:18:51.730Z,89
2016-10-14T01:19:51.693Z,89.1
2016-10-14T01:20:51.648Z,89.06
2016-10-14T01:21:51.309Z,89
2016-10-14T01:22:51.570Z,88.91
2016-10-14T01:23:51.529Z,88.96
2016-10-14T01:24:51.189Z,88.87
2016-10-14T01:25:51.455Z,88.87
2016-10-14T01:26:51.415Z,88.77
2016-10-14T01:27:51.370Z,89.1
2016-10-14T01:28:51.332Z,88.77
2016-10-14T01:29:51.305Z,88.68
2016-10-14T01:30:51.254Z,88.77
2016-10-14T01:31:50.911Z,89.43
2016-10-14T01:32:50.870Z,89.34
2016-10-14T01:33:51.136Z,89.06
2016-10-14T01:34:50.791Z,89.53
2016-10-14T01:35:50.752Z,89.58
2016-10-14T01:36:51.016Z,89.15
2016-10-14T01:37:50.979Z,89.29
2016-10-14T01:38:50.935Z,89.48
2016-10-14T01:39:50.898Z,89.29
2016-10-14T01:40:50.554Z,89.39
2016-10-14T01:41:50.821Z,89.29
2016-10-14T01:42:50.780Z,89.1
2016-10-14T01:43:50.741Z,89.39
2016-10-14T01:44:50.700Z,88.81
2016-10-14T01:45:50.661Z,89.1
2016-10-14T01:46:50.628Z,89
2016-10-14T01:47:50.578Z,89
2016-10-14T01:48:50.542Z,88.81
2016-10-14T01:49:50.501Z,89.29
2016-10-14T01:50:50.160Z,89
2016-10-14T01:51:50.422Z,89.2
2016-10-14T01:52:50.389Z,88.81
2016-10-14T01:53:50.342Z,89.2
2016-10-14T01:54:50.309Z,89.2
2016-10-14T01:55:50.267Z,88.81
2016-10-14T01:56:49.928Z,88.91
2016-10-14T01:57:49.883Z,89
2016-10-14T01:58:50.152Z,88.81
2016-10-14T01:59:50.110Z,88.81
2016-10-14T02:00:50.069Z,89.2
2016-10-14T02:01:50.029Z,89.2
2016-10-14T02:02:49.990Z,88.91
2016-10-14T02:03:49.948Z,88.91
2016-10-14T02:04:49.911Z,88.91
2016-10-14T02:05:49.873Z,88.91
2016-10-14T02:06:49.829Z,89
2016-10-14T02:07:49.790Z,89.1
2016-10-14T02:08:49.761Z,89.2
2016-10-14T02:09:49.716Z,89
2016-10-14T02:10:49.670Z,89.1
2016-10-14T02:11:49.330Z,89.2
2016-10-14T02:12:49.596Z,88.81
2016-10-14T02:13:49.253Z,88.91
2016-10-14T02:14:49.519Z,89.29
2016-10-14T02:15:49.481Z,89.2
2016-10-14T02:16:49.437Z,89.48
2016-10-14T02:17:49.399Z,89.29
2016-10-14T02:18:49.358Z,89.29
2016-10-14T02:19:49.319Z,89.58
2016-10-14T02:20:49.281Z,89.58
2016-10-14T02:21:49.239Z,89.58
2016-10-14T02:22:49.202Z,89.67
2016-10-14T02:23:48.860Z,89.76
2016-10-14T02:24:49.121Z,89.76
2016-10-14T02:25:48.781Z,89.86
2016-10-14T02:26:49.043Z,90.14
2016-10-14T02:27:49.003Z,90.24
2016-10-14T02:28:48.969Z,89.86
2016-10-14T02:29:48.924Z,89.95
2016-10-14T02:30:48.885Z,89.67
2016-10-14T02:31:48.556Z,89.95
2016-10-14T02:32:48.503Z,89.86
2016-10-14T02:33:48.766Z,90.43
2016-10-14T02:34:48.727Z,90.33
2016-10-14T02:35:48.685Z,90.43
2016-10-14T02:36:48.647Z,90.24
2016-10-14T02:37:48.608Z,90.33
2016-10-14T02:38:48.268Z,90.24
2016-10-14T02:39:48.228Z,90.43
2016-10-14T02:40:48.490Z,90.24
2016-10-14T02:41:48.450Z,90.24
2016-10-14T02:42:48.413Z,90.43
2016-10-14T02:43:48.375Z,90.24
2016-10-14T02:44:48.038Z,90.52
2016-10-14T02:45:47.992Z,90.24
2016-10-14T02:46:47.952Z,90.43
2016-10-14T02:47:48.216Z,90.43
2016-10-14T02:48:48.177Z,90.33
2016-10-14T02:49:48.136Z,90.71
2016-10-14T02:50:48.103Z,90.43
2016-10-14T02:51:48.054Z,90.71
2016-10-14T02:52:48.022Z,89.86
2016-10-14T02:53:47.981Z,89.86
2016-10-14T02:54:47.945Z,89.76
2016-10-14T02:55:47.901Z,89.67
2016-10-14T02:56:47.860Z,89.76
2016-10-14T02:57:47.518Z,89.95
2016-10-14T02:58:47.779Z,89.86
2016-10-14T02:59:47.742Z,90.05
2016-10-14T03:00:47.702Z,89.86
2016-10-14T03:01:47.664Z,89.76
2016-10-14T03:02:47.623Z,90.24
2016-10-14T03:03:47.584Z,90.24
2016-10-14T03:04:47.545Z,90.14
2016-10-14T03:05:47.507Z,90.24
2016-10-14T03:06:47.467Z,90.33
2016-10-14T03:07:47.427Z,90.14
2016-10-14T03:08:47.385Z,90.24
2016-10-14T03:09:47.347Z,90.14
2016-10-14T03:10:47.310Z,90.24
2016-10-14T03:11:47.274Z,90.14
2016-10-14T03:12:46.931Z,90.33
2016-10-14T03:13:47.190Z,89.95
2016-10-14T03:14:47.149Z,89.76
2016-10-14T03:15:47.112Z,89.58
2016-10-14T03:16:47.075Z,89.67
2016-10-14T03:17:47.030Z,89.86
2016-10-14T03:18:47.000Z,89.48
2016-10-14T03:19:46.954Z,89.76
2016-10-14T03:20:46.915Z,89.76
2016-10-14T03:21:46.576Z,89.67
2016-10-14T03:22:46.836Z,89.58
2016-10-14T03:23:46.499Z,89.72
2016-10-14T03:24:46.765Z,89.62
2016-10-14T03:25:46.716Z,90.19
2016-10-14T03:26:46.375Z,90.19
2016-10-14T03:27:46.640Z,90
2016-10-14T03:28:46.599Z,89.91
2016-10-14T03:29:46.561Z,89.81
2016-10-14T03:30:46.525Z,89.91
2016-10-14T03:31:46.480Z,89.91
2016-10-14T03:32:46.138Z,90.29
2016-10-14T03:33:46.403Z,90.29
2016-10-14T03:34:46.364Z,90.29
2016-10-14T03:35:46.325Z,90.19
2016-10-14T03:36:46.281Z,90.29
2016-10-14T03:37:45.939Z,90.19
2016-10-14T03:38:46.203Z,90.67
2016-10-14T03:39:46.171Z,90.48
2016-10-14T03:40:46.138Z,90.86
2016-10-14T03:41:46.083Z,90.86
2016-10-14T03:42:46.043Z,90.76
2016-10-14T03:43:46.005Z,90.48
2016-10-14T03:44:45.962Z,90.48
2016-10-14T03:45:45.925Z,90.38
2016-10-14T03:46:45.885Z,90.48
2016-10-14T03:47:45.843Z,90.67
2016-10-14T03:48:45.802Z,90.67
2016-10-14T03:49:45.796Z,90.86
2016-10-14T03:50:45.733Z,90.67
2016-10-14T03:51:45.686Z,90.48
2016-10-14T03:52:45.344Z,90.67
2016-10-14T03:53:45.607Z,91.14
2016-10-14T03:54:45.585Z,90.86
2016-10-14T03:55:45.526Z,91.24
2016-10-14T03:56:45.488Z,90.67
2016-10-14T03:57:45.449Z,91.14
2016-10-14T03:58:45.407Z,91.14
2016-10-14T03:59:45.370Z,91.14
2016-10-14T04:00:45.334Z,91.9
2016-10-14T04:01:45.287Z,91.61
2016-10-14T04:02:45.247Z,91.52
2016-10-14T04:03:45.211Z,91.42
2016-10-14T04:04:45.170Z,91.61
2016-10-14T04:05:44.829Z,91.42
2016-10-14T04:06:44.788Z,91.47
2016-10-14T04:07:45.050Z,91.52
2016-10-14T04:08:44.708Z,91.38
2016-10-14T04:09:44.978Z,91.38
2016-10-14T04:10:44.932Z,91.66
2016-10-14T04:11:44.892Z,91.66
2016-10-14T04:12:44.851Z,91.76
2016-10-14T04:13:44.813Z,92.04
2016-10-14T04:14:44.770Z,91.76
2016-10-14T04:15:44.746Z,91.66
2016-10-14T04:16:44.691Z,91.85
2016-10-14T04:17:44.650Z,92.04
2016-10-14T04:18:44.309Z,92.14
2016-10-14T04:19:44.570Z,91.85
2016-10-14T04:20:44.532Z,92.14
2016-10-14T04:21:44.495Z,92.04
2016-10-14T04:22:44.472Z,92.14
2016-10-14T04:23:44.431Z,92.14
2016-10-14T04:24:44.377Z,92.99
2016-10-14T04:25:44.348Z,92.9
2016-10-14T04:26:44.293Z,92.61
2016-10-14T04:27:44.267Z,92.71
2016-10-14T04:28:44.216Z,92.52
2016-10-14T04:29:44.174Z,92.52
2016-10-14T04:30:44.133Z,92.61
2016-10-14T04:31:43.795Z,92.52
2016-10-14T04:32:44.057Z,92.71
2016-10-14T04:33:43.720Z,92.42
2016-10-14T04:34:43.669Z,92.8
2016-10-14T04:35:43.939Z,92.76
2016-10-14T04:36:43.595Z,92.71
2016-10-14T04:37:43.854Z,92.8
2016-10-14T04:38:43.812Z,92.71
2016-10-14T04:39:43.476Z,92.71
2016-10-14T04:40:43.734Z,92.33
2016-10-14T04:41:43.702Z,92.42
2016-10-14T04:42:43.656Z,92.71
2016-10-14T04:43:43.615Z,92.71
2016-10-14T04:44:43.576Z,92.71
2016-10-14T04:45:43.535Z,92.52
2016-10-14T04:46:43.497Z,92.42
2016-10-14T04:47:43.454Z,92.52
2016-10-14T04:48:43.417Z,92.71
2016-10-14T04:49:43.381Z,92.33
2016-10-14T04:50:43.336Z,92.71
2016-10-14T04:51:43.301Z,92.9
2016-10-14T04:52:42.954Z,93.18
2016-10-14T04:53:43.215Z,93.08
2016-10-14T04:54:43.179Z,92.52
2016-10-14T04:55:43.138Z,92.71
2016-10-14T04:56:42.794Z,92.8
2016-10-14T04:57:43.055Z,92.9
2016-10-14T04:58:43.018Z,93.08
2016-10-14T04:59:42.979Z,93.56
2016-10-14T05:00:42.936Z,93.65
2016-10-14T05:01:42.896Z,93.65
2016-10-14T05:02:42.879Z,93.37
2016-10-14T05:03:42.515Z,93.46
2016-10-14T05:04:42.775Z,93.08
2016-10-14T05:05:42.738Z,93.46
2016-10-14T05:06:42.697Z,93.46
2016-10-14T05:07:42.655Z,93.37
2016-10-14T05:08:42.618Z,93.65
2016-10-14T05:09:42.577Z,93.37
2016-10-14T05:10:42.537Z,93.46
2016-10-14T05:11:42.499Z,93.46
2016-10-14T05:12:42.155Z,93.65
2016-10-14T05:13:42.419Z,93.56
2016-10-14T05:14:42.377Z,93.84
2016-10-14T05:15:42.336Z,93.84
2016-10-14T05:16:42.313Z,93.84
2016-10-14T05:17:42.255Z,93.84
2016-10-14T05:18:41.912Z,93.75
2016-10-14T05:19:42.174Z,94.04
2016-10-14T05:20:42.142Z,93.75
2016-10-14T05:21:42.099Z,94.04
2016-10-14T05:22:42.055Z,94.51
2016-10-14T05:23:42.015Z,94.23
2016-10-14T05:24:41.977Z,94.51
2016-10-14T05:25:41.937Z,94.6
2016-10-14T05:26:41.894Z,94.6
2016-10-14T05:27:41.854Z,94.6
2016-10-14T05:28:41.814Z,94.32
2016-10-14T05:29:41.775Z,94.04
2016-10-14T05:30:41.431Z,94.32
2016-10-14T05:31:41.703Z,94.51
2016-10-14T05:32:41.655Z,94.23
2016-10-14T05:33:41.617Z,94.7
2016-10-14T05:34:41.572Z,94.7
2016-10-14T05:35:41.534Z,94.89
2016-10-14T05:36:41.496Z,94.7
2016-10-14T05:37:41.151Z,94.42
2016-10-14T05:38:41.416Z,94.51
2016-10-14T05:39:41.071Z,94.42
2016-10-14T05:40:41.339Z,94.79
2016-10-14T05:41:41.294Z,94.51
2016-10-14T05:42:41.250Z,95.07
2016-10-14T05:43:40.914Z,94.98
2016-10-14T05:44:41.173Z,94.32
2016-10-14T05:45:41.136Z,94.23
2016-10-14T05:46:41.091Z,94.51
2016-10-14T05:47:40.752Z,94.32
2016-10-14T05:48:41.013Z,94.42
2016-10-14T05:49:40.974Z,94.13
2016-10-14T05:50:40.930Z,94.04
2016-10-14T05:51:40.894Z,94.7
2016-10-14T05:52:40.852Z,94.04
2016-10-14T05:53:40.814Z,94.23
2016-10-14T05:54:40.774Z,93.94
2016-10-14T05:55:40.734Z,93.94
2016-10-14T05:56:40.695Z,93.84
2016-10-14T05:57:40.653Z,94.04
2016-10-14T05:58:40.613Z,94.04
2016-10-14T05:59:40.576Z,94.04
2016-10-14T06:00:40.233Z,93.94
2016-10-14T06:01:40.493Z,94.04
2016-10-14T06:02:40.452Z,94.23
2016-10-14T06:03:40.412Z,94.51
2016-10-14T06:04:40.373Z,94.23
2016-10-14T06:05:40.332Z,94.27
2016-10-14T06:06:39.992Z,94.18
2016-10-14T06:07:40.255Z,93.99
2016-10-14T06:08:40.213Z,93.8
2016-10-14T06:09:40.174Z,93.61
2016-10-14T06:10:40.136Z,94.08
2016-10-14T06:11:40.095Z,93.89
2016-10-14T06:12:39.753Z,93.32
2016-10-14T06:13:40.015Z,93.51
2016-10-14T06:14:39.672Z,93.89
2016-10-14T06:15:39.936Z,93.51
2016-10-14T06:16:39.594Z,93.32
2016-10-14T06:17:39.860Z,93.32
2016-10-14T06:18:39.817Z,92.57
2016-10-14T06:19:39.778Z,93.23
2016-10-14T06:20:39.739Z,92.66
2016-10-14T06:21:39.699Z,92.94
2016-10-14T06:22:39.660Z,91.9
2016-10-14T06:23:39.641Z,91.8
2016-10-14T06:24:39.277Z,91.9
2016-10-14T06:25:39.538Z,92.33
2016-10-14T06:26:39.506Z,91.85
2016-10-14T06:27:39.461Z,91.66
2016-10-14T06:28:39.419Z,91.56
2016-10-14T06:29:39.079Z,91
2016-10-14T06:30:39.343Z,90.9
2016-10-14T06:31:39.300Z,90.71
2016-10-14T06:32:39.265Z,90.33
2016-10-14T06:33:39.224Z,90.81
2016-10-14T06:34:39.228Z,90.24
2016-10-14T06:35:39.144Z,90.52
2016-10-14T06:36:39.110Z,90.52
2016-10-14T06:37:39.074Z,90.33
2016-10-14T06:38:39.033Z,89.48
2016-10-14T06:39:38.990Z,89.67
2016-10-14T06:40:38.948Z,88.91
2016-10-14T06:41:38.908Z,89
2016-10-14T06:42:38.570Z,89.1
2016-10-14T06:43:38.830Z,88.86
2016-10-14T06:44:38.791Z,88.29
2016-10-14T06:45:38.756Z,88.01
2016-10-14T06:46:38.714Z,88.39
2016-10-14T06:47:38.676Z,88.2
2016-10-14T06:48:38.637Z,87.82
2016-10-14T06:49:38.599Z,87.91
2016-10-14T06:50:38.555Z,87.43
2016-10-14T06:51:38.519Z,87.24
2016-10-14T06:52:38.178Z,86.91
2016-10-14T06:53:38.440Z,87.19
2016-10-14T06:54:38.402Z,86.15
2016-10-14T06:55:38.063Z,86.15
2016-10-14T06:56:38.325Z,86.24
2016-10-14T06:57:38.286Z,85.77
2016-10-14T06:58:38.248Z,85.49
2016-10-14T06:59:38.210Z,84.95
2016-10-14T07:00:38.169Z,84.86
2016-10-14T07:01:38.133Z,84.39
2016-10-14T07:02:38.094Z,84.01
2016-10-14T07:03:38.057Z,84.1
2016-10-14T07:04:38.020Z,83.62
2016-10-14T07:05:37.978Z,82.96
2016-10-14T07:06:37.941Z,82.43
2016-10-14T07:07:37.900Z,82.81
2016-10-14T07:08:37.865Z,82.71
2016-10-14T07:09:37.833Z,82.24
2016-10-14T07:10:37.790Z,81.86
2016-10-14T07:11:37.449Z,81.77
2016-10-14T07:12:37.712Z,81.38
2016-10-14T07:13:37.677Z,81.48
2016-10-14T07:14:37.642Z,81.1
2016-10-14T07:15:37.602Z,81.2
2016-10-14T07:16:37.261Z,80.63
2016-10-14T07:17:37.526Z,80.24
2016-10-14T07:18:37.493Z,80.15
2016-10-14T07:19:37.452Z,79.77
2016-10-14T07:20:37.111Z,79.49
2016-10-14T07:21:37.377Z,79.58
2016-10-14T07:22:37.337Z,79.49
2016-10-14T07:23:36.999Z,79.11
2016-10-14T07:24:37.261Z,79.05
2016-10-14T07:25:37.222Z,78.77
2016-10-14T07:26:37.188Z,78.57
2016-10-14T07:27:37.153Z,78.48
2016-10-14T07:28:37.121Z,77.81
2016-10-14T07:29:37.079Z,78.63
2016-10-14T07:30:37.038Z,78.72
2016-10-14T07:31:36.705Z,79.2
2016-10-14T07:32:36.964Z,79.11
2016-10-14T07:33:36.928Z,79.58
2016-10-14T07:34:36.891Z,79.96
2016-10-14T07:35:36.851Z,80.3
2016-10-14T07:36:36.812Z,80.4
2016-10-14T07:37:36.477Z,80.87
2016-10-14T07:38:36.741Z,81.06
2016-10-14T07:39:36.703Z,81.54
2016-10-14T07:40:36.667Z,81.48
2016-10-14T07:41:36.635Z,81.63
2016-10-14T07:42:36.594Z,81.54
2016-10-14T07:43:36.248Z,81.35
2016-10-14T07:44:36.515Z,81.35
2016-10-14T07:45:36.476Z,82.01
2016-10-14T07:46:36.440Z,81.73
2016-10-14T07:47:36.098Z,82.01
2016-10-14T07:48:36.362Z,81.82
2016-10-14T07:49:36.328Z,82.01
2016-10-14T07:50:36.295Z,82.1
2016-10-14T07:51:36.251Z,81.54
2016-10-14T07:52:36.213Z,82.39
2016-10-14T07:53:36.173Z,82.39
2016-10-14T07:54:36.134Z,82.39
2016-10-14T07:55:36.097Z,82.29
2016-10-14T07:56:36.059Z,82.39
2016-10-14T07:57:35.722Z,82.29
2016-10-14T07:58:35.687Z,82.1
2016-10-14T07:59:35.958Z,82.1
2016-10-14T08:00:35.910Z,82.58
2016-10-14T08:01:35.571Z,82.01
2016-10-14T08:02:35.832Z,82.58
2016-10-14T08:03:35.797Z,82.68
2016-10-14T08:04:35.756Z,82.68
2016-10-14T08:05:35.720Z,82.68
2016-10-14T08:06:35.687Z,82.77
2016-10-14T08:07:35.644Z,82.68
2016-10-14T08:08:35.606Z,82.49
2016-10-14T08:09:35.566Z,82.49
2016-10-14T08:10:35.531Z,82.58
2016-10-14T08:11:35.196Z,82.49
2016-10-14T08:12:35.454Z,82.58
2016-10-14T08:13:35.414Z,82.77
2016-10-14T08:14:35.378Z,82.58
2016-10-14T08:15:35.039Z,82.53
2016-10-14T08:16:35.302Z,82.39
2016-10-14T08:17:35.285Z,82.58
2016-10-14T08:18:34.925Z,82.71
2016-10-14T08:19:35.193Z,82.91
2016-10-14T08:20:35.159Z,82.71
2016-10-14T08:21:35.113Z,82.71
2016-10-14T08:22:34.771Z,82.81
2016-10-14T08:23:35.038Z,82.62
2016-10-14T08:24:34.696Z,83
2016-10-14T08:25:34.962Z,82.62
2016-10-14T08:26:34.928Z,82.34
2016-10-14T08:27:34.584Z,82.43
2016-10-14T08:28:34.848Z,82.43
2016-10-14T08:29:34.808Z,82.34
2016-10-14T08:30:34.777Z,82.43
2016-10-14T08:31:34.733Z,82.53
2016-10-14T08:32:34.697Z,83
2016-10-14T08:33:34.660Z,82.43
2016-10-14T08:34:34.621Z,82.05
2016-10-14T08:35:34.586Z,81.77
2016-10-14T08:36:34.245Z,81.67
2016-10-14T08:37:34.509Z,82.05
2016-10-14T08:38:34.487Z,82.2
2016-10-14T08:39:34.128Z,82.29
2016-10-14T08:40:34.394Z,82.77
2016-10-14T08:41:34.355Z,83.34
2016-10-14T08:42:34.320Z,83.25
2016-10-14T08:43:34.281Z,83.25
2016-10-14T08:44:34.243Z,83.34
2016-10-14T08:45:34.206Z,83.53
2016-10-14T08:46:34.168Z,83.53
2016-10-14T08:47:34.129Z,82.96
2016-10-14T08:48:33.793Z,83.62
2016-10-14T08:49:34.056Z,83.53
2016-10-14T08:50:33.712Z,84.01
2016-10-14T08:51:33.977Z,83.44
2016-10-14T08:52:33.940Z,84.67
2016-10-14T08:53:33.906Z,84.67
2016-10-14T08:54:33.562Z,84.39
2016-10-14T08:55:33.829Z,84.48
2016-10-14T08:56:33.796Z,84.48
2016-10-14T08:57:33.751Z,83.62
2016-10-14T08:58:33.411Z,83.72
2016-10-14T08:59:33.673Z,84.58
2016-10-14T09:00:33.633Z,84.2
2016-10-14T09:01:33.597Z,83.62
2016-10-14T09:02:33.559Z,84.39
2016-10-14T09:03:33.530Z,84.48
2016-10-14T09:04:33.483Z,84.67
2016-10-14T09:05:33.445Z,84.77
2016-10-14T09:06:33.104Z,83.91
2016-10-14T09:07:33.371Z,84.1
2016-10-14T09:08:33.027Z,84.2
2016-10-14T09:09:33.294Z,84.1
2016-10-14T09:10:33.257Z,83.82
2016-10-14T09:11:33.217Z,84.01
2016-10-14T09:12:33.179Z,84.48
2016-10-14T09:13:33.143Z,84.48
2016-10-14T09:14:33.118Z,84.29
2016-10-14T09:15:33.076Z,84.58
2016-10-14T09:16:33.032Z,83.91
2016-10-14T09:17:33.000Z,84.1
2016-10-14T09:18:32.950Z,84.2
2016-10-14T09:19:32.917Z,83.91
2016-10-14T09:20:32.877Z,84.05
2016-10-14T09:21:32.538Z,83.91
2016-10-14T09:22:32.800Z,84.05
2016-10-14T09:23:32.763Z,84.05
2016-10-14T09:24:32.429Z,84.33
2016-10-14T09:25:32.692Z,84.24
2016-10-14T09:26:32.649Z,84.05
2016-10-14T09:27:32.609Z,83.67
2016-10-14T09:28:32.572Z,83.67
2016-10-14T09:29:32.532Z,83.86
2016-10-14T09:30:32.496Z,83.29
2016-10-14T09:31:32.166Z,83.48
2016-10-14T09:32:32.419Z,83.39
2016-10-14T09:33:32.380Z,83.19
2016-10-14T09:34:32.346Z,83.48
2016-10-14T09:35:32.307Z,83.48
2016-10-14T09:36:32.268Z,83.39
2016-10-14T09:37:32.228Z,83.48
2016-10-14T09:38:32.192Z,83.29
2016-10-14T09:39:32.152Z,83.19
2016-10-14T09:40:32.123Z,83.48
2016-10-14T09:41:32.087Z,83.39
2016-10-14T09:42:32.039Z,83.48
2016-10-14T09:43:32.001Z,82.57
2016-10-14T09:44:31.962Z,82.76
2016-10-14T09:45:31.623Z,83
2016-10-14T09:46:31.892Z,82.48
2016-10-14T09:47:31.852Z,82.09
2016-10-14T09:48:31.813Z,82.57
2016-10-14T09:49:31.776Z,81.62
2016-10-14T09:50:31.743Z,82.09
2016-10-14T09:51:31.697Z,81.43
2016-10-14T09:52:31.662Z,81.33
2016-10-14T09:53:31.627Z,80.86
2016-10-14T09:54:31.591Z,80.57
2016-10-14T09:55:31.551Z,80.33
2016-10-14T09:56:31.512Z,80.04
2016-10-14T09:57:31.477Z,80.04
2016-10-14T09:58:31.137Z,79.94
2016-10-14T09:59:31.403Z,79.66
2016-10-14T10:00:31.363Z,79.47
2016-10-14T10:01:31.033Z,79.19
2016-10-14T10:02:31.291Z,78.52
2016-10-14T10:03:31.252Z,78.14
2016-10-14T10:04:30.915Z,77.56
2016-10-14T10:05:31.183Z,76.56
2016-10-14T10:06:31.142Z,76.65
2016-10-14T10:07:31.104Z,76.18
2016-10-14T10:08:31.071Z,76.08
2016-10-14T10:09:31.032Z,75.6
2016-10-14T10:10:30.994Z,74.94
2016-10-14T10:11:30.660Z,74.56
2016-10-14T10:12:30.924Z,74.18
2016-10-14T10:13:30.885Z,73.61
2016-10-14T10:14:30.849Z,72.97
2016-10-14T10:15:30.810Z,72.69
2016-10-14T10:16:30.775Z,72.88
2016-10-14T10:17:30.434Z,72.31
2016-10-14T10:18:30.704Z,71.77
2016-10-14T10:19:30.666Z,71.68
2016-10-14T10:20:30.630Z,70.92
2016-10-14T10:21:30.292Z,70.44
2016-10-14T10:22:30.565Z,69.77
2016-10-14T10:23:30.521Z,68.66
2016-10-14T10:24:30.491Z,68.47
2016-10-14T10:25:30.152Z,68.28
2016-10-14T10:26:30.414Z,67.99
2016-10-14T10:27:30.379Z,67.71
2016-10-14T10:28:30.345Z,67.71
2016-10-14T10:29:30.009Z,68.09
2016-10-14T10:30:30.275Z,68.24
2016-10-14T10:31:29.935Z,68.44
2016-10-14T10:32:30.202Z,69.1
2016-10-14T10:33:30.549Z,69.48
2016-10-14T10:34:30.141Z,69.39
2016-10-14T10:35:30.104Z,69.87
2016-10-14T10:36:30.068Z,69.58
2016-10-14T10:37:30.034Z,70.06
2016-10-14T10:38:29.992Z,69.68
2016-10-14T10:39:29.957Z,69.52
2016-10-14T10:40:29.928Z,69.52
2016-10-14T10:41:29.885Z,69.14
2016-10-14T10:42:29.549Z,68.85
2016-10-14T10:43:29.815Z,68.47
2016-10-14T10:44:29.780Z,67.83
2016-10-14T10:45:29.744Z,67.17
2016-10-14T10:46:29.707Z,67.27
2016-10-14T10:47:29.676Z,67.46
2016-10-14T10:48:29.639Z,67.27
2016-10-14T10:49:29.607Z,67.21
2016-10-14T10:50:29.267Z,67.21
2016-10-14T10:51:29.543Z,66.82
2016-10-14T10:52:29.503Z,67.01
2016-10-14T10:53:29.467Z,66.82
2016-10-14T10:54:29.434Z,66.82
2016-10-14T10:55:29.397Z,66.82
2016-10-14T10:56:29.364Z,66.63
2016-10-14T10:57:29.341Z,66.44
2016-10-14T10:58:29.296Z,65.77
2016-10-14T10:59:28.956Z,65.48
2016-10-14T11:00:29.226Z,65.3
2016-10-14T11:01:29.192Z,65.77
2016-10-14T11:02:29.157Z,66.15
2016-10-14T11:03:29.122Z,66.06
2016-10-14T11:04:29.088Z,66.25
2016-10-14T11:05:29.051Z,66.6
2016-10-14T11:06:29.019Z,66.78
2016-10-14T11:07:28.985Z,67.17
2016-10-14T11:08:28.969Z,67.27
2016-10-14T11:09:28.918Z,67.27
2016-10-14T11:10:28.881Z,67.46
2016-10-14T11:11:28.546Z,68.03
2016-10-14T11:12:28.815Z,68.22
2016-10-14T11:13:28.779Z,68.51
2016-10-14T11:14:28.744Z,68.38
2016-10-14T11:15:28.707Z,68.18
2016-10-14T11:16:28.673Z,68.47
2016-10-14T11:17:28.337Z,68.38
2016-10-14T11:18:28.603Z,68.57
2016-10-14T11:19:28.272Z,68.28
2016-10-14T11:20:28.534Z,68.85
2016-10-14T11:21:28.502Z,69.62
2016-10-14T11:22:28.466Z,70.63
2016-10-14T11:23:28.431Z,70.82
2016-10-14T11:24:28.391Z,71.2
2016-10-14T11:25:28.360Z,70.63
2016-10-14T11:26:28.321Z,71.11
2016-10-14T11:27:28.284Z,71.58
2016-10-14T11:28:27.951Z,72.06
2016-10-14T11:29:28.215Z,71.87
2016-10-14T11:30:28.180Z,72.34
2016-10-14T11:31:28.153Z,72.69
2016-10-14T11:32:28.110Z,73.26
2016-10-14T11:33:28.078Z,72.78
2016-10-14T11:34:28.036Z,73.07
2016-10-14T11:35:28.006Z,72.88
2016-10-14T11:36:27.966Z,73.36
2016-10-14T11:37:27.934Z,73.45
2016-10-14T11:38:27.894Z,73.45
2016-10-14T11:39:27.557Z,73.74
2016-10-14T11:40:27.823Z,73.74
2016-10-14T11:41:27.787Z,73.36
2016-10-14T11:42:27.750Z,73.65
2016-10-14T11:43:27.412Z,73.74
2016-10-14T11:44:27.679Z,73.49
2016-10-14T11:45:27.641Z,74.16
2016-10-14T11:46:27.611Z,73.83
2016-10-14T11:47:27.574Z,73.74
2016-10-14T11:48:27.536Z,74.21
2016-10-14T11:49:27.502Z,74.21
2016-10-14T11:50:27.161Z,74.06
2016-10-14T11:51:27.125Z,74.21
2016-10-14T11:52:27.390Z,74.4
2016-10-14T11:53:27.356Z,74.02
2016-10-14T11:54:27.323Z,74.06
2016-10-14T11:55:27.288Z,74.06
2016-10-14T11:56:27.246Z,74.54
2016-10-14T11:57:27.210Z,74.54
2016-10-14T11:58:26.872Z,74.44
2016-10-14T11:59:27.138Z,74.25
2016-10-14T12:00:27.105Z,74.25
2016-10-14T12:01:27.064Z,74.44
2016-10-14T12:02:26.729Z,74.44
2016-10-14T12:03:26.994Z,74.44
2016-10-14T12:04:26.972Z,74.16
2016-10-14T12:05:26.922Z,74.35
2016-10-14T12:06:26.886Z,74.06
2016-10-14T12:07:26.550Z,73.96
2016-10-14T12:08:26.814Z,74.16
2016-10-14T12:09:26.776Z,74.25
2016-10-14T12:10:26.744Z,73.96
2016-10-14T12:11:26.708Z,74.06
2016-10-14T12:12:26.368Z,74.06
2016-10-14T12:13:26.636Z,74.25
2016-10-14T12:14:26.303Z,74.06
2016-10-14T12:15:26.562Z,74.44
2016-10-14T12:16:26.526Z,73.87
2016-10-14T12:17:26.493Z,73.87
2016-10-14T12:18:26.455Z,73.68
2016-10-14T12:19:26.421Z,73.77
2016-10-14T12:20:26.385Z,73.49
2016-10-14T12:21:26.347Z,73.3
2016-10-14T12:22:26.314Z,72.92
2016-10-14T12:23:26.279Z,73.21
2016-10-14T12:24:25.942Z,73.3
2016-10-14T12:25:26.206Z,73.21
2016-10-14T12:26:26.170Z,73.24
2016-10-14T12:27:26.136Z,72.76
2016-10-14T12:28:26.099Z,72.96
2016-10-14T12:29:26.067Z,72.67
2016-10-14T12:30:26.033Z,72.96
2016-10-14T12:31:25.992Z,72.28
2016-10-14T12:32:25.653Z,72.86
2016-10-14T12:33:25.919Z,72.28
2016-10-14T12:34:25.584Z,72.09
2016-10-14T12:35:25.850Z,72.28
2016-10-14T12:36:25.816Z,72.28
2016-10-14T12:37:25.780Z,72.28
2016-10-14T12:38:25.439Z,71.91
2016-10-14T12:39:25.704Z,72.19
2016-10-14T12:40:25.671Z,71.52
2016-10-14T12:41:25.641Z,71.91
2016-10-14T12:42:25.601Z,71.43
2016-10-14T12:43:25.262Z,70.76
2016-10-14T12:44:25.531Z,71.04
2016-10-14T12:45:25.498Z,70.61
2016-10-14T12:46:25.467Z,70.51
2016-10-14T12:47:25.431Z,70.22
2016-10-14T12:48:25.085Z,69.93
2016-10-14T12:49:25.354Z,69.08
2016-10-14T12:50:25.333Z,68.54
2016-10-14T12:51:24.981Z,68.63
2016-10-14T12:52:25.248Z,68.26
2016-10-14T12:53:25.213Z,67.97
2016-10-14T12:54:25.184Z,67.87
2016-10-14T12:55:25.144Z,67.33
2016-10-14T12:56:25.109Z,67.05